sensor_id;sensor_type;location;lat;lon;timestamp;temperature;humidity
39815;DHT22;25495;45.948;4.568;2023-02-02T00:01:27;4.10;99.90
39815;DHT22;25495;45.948;4.568;2023-02-02T00:03:53;4.10;99.90
39815;DHT22;25495;45.948;4.568;2023-02-02T00:06:20;4.10;99.90
39815;DHT22;25495;45.948;4.568;2023-02-02T00:08:46;4.10;99.90
39815;DHT22;25495;45.948;4.568;2023-02-02T00:11:12;4.00;99.90
39815;DHT22;25495;45.948;4.568;2023-02-02T00:13:38;4.00;99.90
39815;DHT22;25495;45.948;4.568;2023-02-02T00:18:48;3.90;99.90
39815;DHT22;25495;45.948;4.568;2023-02-02T00:21:14;3.90;99.90
39815;DHT22;25495;45.948;4.568;2023-02-02T00:23:40;3.90;99.90
39815;DHT22;25495;45.948;4.568;2023-02-02T00:26:05;4.10;99.90
39815;DHT22;25495;45.948;4.568;2023-02-02T00:28:31;4.10;99.90
39815;DHT22;25495;45.948;4.568;2023-02-02T00:30:57;4.10;99.90
39815;DHT22;25495;45.948;4.568;2023-02-02T00:33:22;4.00;99.90
39815;DHT22;25495;45.948;4.568;2023-02-02T00:35:50;4.20;99.90
39815;DHT22;25495;45.948;4.568;2023-02-02T00:38:16;4.20;99.90
39815;DHT22;25495;45.948;4.568;2023-02-02T00:40:41;4.00;99.90
39815;DHT22;25495;45.948;4.568;2023-02-02T00:43:07;3.70;99.90
39815;DHT22;25495;45.948;4.568;2023-02-02T00:45:33;3.60;99.90
39815;DHT22;25495;45.948;4.568;2023-02-02T00:47:58;3.70;99.90
39815;DHT22;25495;45.948;4.568;2023-02-02T00:50:24;3.70;99.90
39815;DHT22;25495;45.948;4.568;2023-02-02T00:52:49;3.70;99.90
39815;DHT22;25495;45.948;4.568;2023-02-02T00:55:15;3.70;99.90
39815;DHT22;25495;45.948;4.568;2023-02-02T00:57:41;3.70;99.90
39815;DHT22;25495;45.948;4.568;2023-02-02T01:00:12;3.70;99.90
39815;DHT22;25495;45.948;4.568;2023-02-02T01:02:39;3.60;99.90
39815;DHT22;25495;45.948;4.568;2023-02-02T01:05:04;3.70;99.90
39815;DHT22;25495;45.948;4.568;2023-02-02T01:07:30;3.70;99.90
39815;DHT22;25495;45.948;4.568;2023-02-02T01:09:56;3.70;99.90
39815;DHT22;25495;45.948;4.568;2023-02-02T01:12:22;3.80;99.90
39815;DHT22;25495;45.948;4.568;2023-02-02T01:14:47;3.70;99.90
39815;DHT22;25495;45.948;4.568;2023-02-02T01:17:13;3.70;99.90
39815;DHT22;25495;45.948;4.568;2023-02-02T01:19:39;3.80;99.90
39815;DHT22;25495;45.948;4.568;2023-02-02T01:22:05;3.70;99.90
39815;DHT22;25495;45.948;4.568;2023-02-02T01:24:30;3.80;99.90
39815;DHT22;25495;45.948;4.568;2023-02-02T01:26:56;3.80;99.90
39815;DHT22;25495;45.948;4.568;2023-02-02T01:29:21;3.90;99.90
39815;DHT22;25495;45.948;4.568;2023-02-02T01:31:47;3.90;99.90
39815;DHT22;25495;45.948;4.568;2023-02-02T01:34:13;3.90;99.90
39815;DHT22;25495;45.948;4.568;2023-02-02T01:36:38;4.00;99.90
39815;DHT22;25495;45.948;4.568;2023-02-02T01:39:04;4.00;99.90
39815;DHT22;25495;45.948;4.568;2023-02-02T01:41:29;4.00;99.90
39815;DHT22;25495;45.948;4.568;2023-02-02T01:43:59;4.00;99.90
39815;DHT22;25495;45.948;4.568;2023-02-02T01:46:26;4.00;99.90
39815;DHT22;25495;45.948;4.568;2023-02-02T01:48:56;3.90;99.90
39815;DHT22;25495;45.948;4.568;2023-02-02T01:51:24;3.90;99.90
39815;DHT22;25495;45.948;4.568;2023-02-02T01:53:51;3.90;99.90
39815;DHT22;25495;45.948;4.568;2023-02-02T01:56:23;3.80;99.90
39815;DHT22;25495;45.948;4.568;2023-02-02T01:58:50;3.70;99.90
39815;DHT22;25495;45.948;4.568;2023-02-02T02:01:16;3.80;99.90
39815;DHT22;25495;45.948;4.568;2023-02-02T02:03:42;3.80;99.90
39815;DHT22;25495;45.948;4.568;2023-02-02T02:06:12;3.70;99.90
39815;DHT22;25495;45.948;4.568;2023-02-02T02:08:56;3.70;99.90
39815;DHT22;25495;45.948;4.568;2023-02-02T02:11:22;3.90;99.90
39815;DHT22;25495;45.948;4.568;2023-02-02T02:13:48;3.80;99.90
39815;DHT22;25495;45.948;4.568;2023-02-02T02:22:10;3.80;99.90
39815;DHT22;25495;45.948;4.568;2023-02-02T02:27:33;3.90;99.90
39815;DHT22;25495;45.948;4.568;2023-02-02T02:32:46;4.00;99.90
39815;DHT22;25495;45.948;4.568;2023-02-02T02:35:27;4.00;99.90
39815;DHT22;25495;45.948;4.568;2023-02-02T02:38:09;4.00;99.90
39815;DHT22;25495;45.948;4.568;2023-02-02T02:45:50;3.90;99.90
39815;DHT22;25495;45.948;4.568;2023-02-02T02:48:15;3.90;99.90
39815;DHT22;25495;45.948;4.568;2023-02-02T02:50:41;3.90;99.90
39815;DHT22;25495;45.948;4.568;2023-02-02T02:53:08;3.90;99.90
39815;DHT22;25495;45.948;4.568;2023-02-02T02:55:53;3.90;99.90
39815;DHT22;25495;45.948;4.568;2023-02-02T02:58:29;3.90;99.90
39815;DHT22;25495;45.948;4.568;2023-02-02T03:08:59;4.00;99.90
39815;DHT22;25495;45.948;4.568;2023-02-02T03:11:25;4.10;99.90
39815;DHT22;25495;45.948;4.568;2023-02-02T03:13:51;4.00;99.90
39815;DHT22;25495;45.948;4.568;2023-02-02T03:16:17;4.10;99.90
39815;DHT22;25495;45.948;4.568;2023-02-02T03:21:08;4.20;99.90
39815;DHT22;25495;45.948;4.568;2023-02-02T03:23:34;4.10;99.90
39815;DHT22;25495;45.948;4.568;2023-02-02T03:25:59;4.00;99.90
39815;DHT22;25495;45.948;4.568;2023-02-02T03:28:25;4.00;99.90
39815;DHT22;25495;45.948;4.568;2023-02-02T03:30:52;4.00;99.90
39815;DHT22;25495;45.948;4.568;2023-02-02T03:33:17;4.00;99.90
39815;DHT22;25495;45.948;4.568;2023-02-02T03:35:43;4.00;99.90
39815;DHT22;25495;45.948;4.568;2023-02-02T03:38:09;4.10;99.90
39815;DHT22;25495;45.948;4.568;2023-02-02T03:40:37;4.10;99.90
39815;DHT22;25495;45.948;4.568;2023-02-02T03:43:03;4.00;99.90
39815;DHT22;25495;45.948;4.568;2023-02-02T03:45:29;4.00;99.90
39815;DHT22;25495;45.948;4.568;2023-02-02T03:47:54;4.00;99.90
39815;DHT22;25495;45.948;4.568;2023-02-02T03:50:20;4.00;99.90
39815;DHT22;25495;45.948;4.568;2023-02-02T03:52:46;4.00;99.90
39815;DHT22;25495;45.948;4.568;2023-02-02T03:55:11;4.00;99.90
39815;DHT22;25495;45.948;4.568;2023-02-02T03:57:37;4.00;99.90
39815;DHT22;25495;45.948;4.568;2023-02-02T04:00:03;4.00;99.90
39815;DHT22;25495;45.948;4.568;2023-02-02T04:02:29;4.10;99.90
39815;DHT22;25495;45.948;4.568;2023-02-02T04:04:54;4.10;99.90
39815;DHT22;25495;45.948;4.568;2023-02-02T04:07:20;4.10;99.90
39815;DHT22;25495;45.948;4.568;2023-02-02T04:09:45;4.10;99.90
39815;DHT22;25495;45.948;4.568;2023-02-02T04:12:11;4.10;99.90
39815;DHT22;25495;45.948;4.568;2023-02-02T04:14:36;4.10;99.90
39815;DHT22;25495;45.948;4.568;2023-02-02T04:17:02;4.10;99.90
39815;DHT22;25495;45.948;4.568;2023-02-02T04:19:28;4.10;99.90
39815;DHT22;25495;45.948;4.568;2023-02-02T04:21:53;4.10;99.90
39815;DHT22;25495;45.948;4.568;2023-02-02T04:24:19;4.10;99.90
39815;DHT22;25495;45.948;4.568;2023-02-02T04:26:44;4.10;99.90
39815;DHT22;25495;45.948;4.568;2023-02-02T04:29:10;4.10;99.90
39815;DHT22;25495;45.948;4.568;2023-02-02T04:31:36;4.10;99.90
39815;DHT22;25495;45.948;4.568;2023-02-02T04:34:01;4.20;99.90
39815;DHT22;25495;45.948;4.568;2023-02-02T04:36:27;4.20;99.90
39815;DHT22;25495;45.948;4.568;2023-02-02T04:38:52;4.20;99.90
39815;DHT22;25495;45.948;4.568;2023-02-02T04:41:18;4.10;99.90
39815;DHT22;25495;45.948;4.568;2023-02-02T04:43:44;4.10;99.90
39815;DHT22;25495;45.948;4.568;2023-02-02T04:46:10;4.10;99.90
39815;DHT22;25495;45.948;4.568;2023-02-02T04:48:36;4.10;99.90
39815;DHT22;25495;45.948;4.568;2023-02-02T04:51:05;4.10;99.90
39815;DHT22;25495;45.948;4.568;2023-02-02T04:53:31;4.30;99.90
39815;DHT22;25495;45.948;4.568;2023-02-02T04:55:57;4.20;99.90
39815;DHT22;25495;45.948;4.568;2023-02-02T04:58:23;4.10;99.90
39815;DHT22;25495;45.948;4.568;2023-02-02T05:00:49;4.10;99.90
39815;DHT22;25495;45.948;4.568;2023-02-02T05:03:14;4.10;99.90
39815;DHT22;25495;45.948;4.568;2023-02-02T05:05:40;3.90;99.90
39815;DHT22;25495;45.948;4.568;2023-02-02T05:08:05;3.80;99.90
39815;DHT22;25495;45.948;4.568;2023-02-02T05:10:33;3.80;99.90
39815;DHT22;25495;45.948;4.568;2023-02-02T05:12:59;3.80;99.90
39815;DHT22;25495;45.948;4.568;2023-02-02T05:15:25;3.90;99.90
39815;DHT22;25495;45.948;4.568;2023-02-02T05:17:50;4.00;99.90
39815;DHT22;25495;45.948;4.568;2023-02-02T05:20:16;3.70;99.90
39815;DHT22;25495;45.948;4.568;2023-02-02T05:22:41;3.60;99.90
39815;DHT22;25495;45.948;4.568;2023-02-02T05:25:07;3.60;99.90
39815;DHT22;25495;45.948;4.568;2023-02-02T05:27:33;3.60;99.90
39815;DHT22;25495;45.948;4.568;2023-02-02T05:29:59;3.70;99.90
39815;DHT22;25495;45.948;4.568;2023-02-02T05:32:24;3.70;99.90
39815;DHT22;25495;45.948;4.568;2023-02-02T05:34:50;3.70;99.90
39815;DHT22;25495;45.948;4.568;2023-02-02T05:37:15;3.60;99.90
39815;DHT22;25495;45.948;4.568;2023-02-02T05:39:41;3.60;99.90
39815;DHT22;25495;45.948;4.568;2023-02-02T05:42:07;3.60;99.90
39815;DHT22;25495;45.948;4.568;2023-02-02T05:44:32;3.70;99.90
39815;DHT22;25495;45.948;4.568;2023-02-02T05:46:58;3.70;99.90
39815;DHT22;25495;45.948;4.568;2023-02-02T05:49:23;3.90;99.90
39815;DHT22;25495;45.948;4.568;2023-02-02T05:51:51;3.70;99.90
39815;DHT22;25495;45.948;4.568;2023-02-02T05:54:18;3.70;99.90
39815;DHT22;25495;45.948;4.568;2023-02-02T05:56:48;3.70;99.90
39815;DHT22;25495;45.948;4.568;2023-02-02T05:59:14;3.60;99.90
39815;DHT22;25495;45.948;4.568;2023-02-02T06:01:42;3.50;99.90
39815;DHT22;25495;45.948;4.568;2023-02-02T06:04:07;3.40;99.90
39815;DHT22;25495;45.948;4.568;2023-02-02T06:06:33;3.50;99.90
39815;DHT22;25495;45.948;4.568;2023-02-02T06:09:00;3.50;99.90
39815;DHT22;25495;45.948;4.568;2023-02-02T06:11:26;3.50;99.90
39815;DHT22;25495;45.948;4.568;2023-02-02T06:13:51;3.40;99.90
39815;DHT22;25495;45.948;4.568;2023-02-02T06:16:17;3.40;99.90
39815;DHT22;25495;45.948;4.568;2023-02-02T06:18:42;3.50;99.90
39815;DHT22;25495;45.948;4.568;2023-02-02T06:21:08;3.50;99.90
39815;DHT22;25495;45.948;4.568;2023-02-02T06:23:34;3.40;99.90
39815;DHT22;25495;45.948;4.568;2023-02-02T06:26:00;3.40;99.90
39815;DHT22;25495;45.948;4.568;2023-02-02T06:28:28;3.30;99.90
39815;DHT22;25495;45.948;4.568;2023-02-02T06:30:54;3.30;99.90
39815;DHT22;25495;45.948;4.568;2023-02-02T06:33:20;3.20;99.90
39815;DHT22;25495;45.948;4.568;2023-02-02T06:35:45;3.20;99.90
39815;DHT22;25495;45.948;4.568;2023-02-02T06:38:11;3.10;99.90
39815;DHT22;25495;45.948;4.568;2023-02-02T06:40:36;3.10;99.90
39815;DHT22;25495;45.948;4.568;2023-02-02T06:43:02;3.10;99.90
39815;DHT22;25495;45.948;4.568;2023-02-02T06:45:29;3.10;99.90
39815;DHT22;25495;45.948;4.568;2023-02-02T06:47:58;3.10;99.90
39815;DHT22;25495;45.948;4.568;2023-02-02T06:50:25;3.00;99.90
39815;DHT22;25495;45.948;4.568;2023-02-02T06:52:51;3.10;99.90
39815;DHT22;25495;45.948;4.568;2023-02-02T06:55:17;3.10;99.90
39815;DHT22;25495;45.948;4.568;2023-02-02T06:57:43;3.00;99.90
39815;DHT22;25495;45.948;4.568;2023-02-02T07:00:09;3.10;99.90
39815;DHT22;25495;45.948;4.568;2023-02-02T07:02:35;3.00;99.90
39815;DHT22;25495;45.948;4.568;2023-02-02T07:05:00;3.10;99.90
39815;DHT22;25495;45.948;4.568;2023-02-02T07:07:26;3.00;99.90
39815;DHT22;25495;45.948;4.568;2023-02-02T07:09:52;3.00;99.90
39815;DHT22;25495;45.948;4.568;2023-02-02T07:12:18;2.90;99.90
39815;DHT22;25495;45.948;4.568;2023-02-02T07:14:44;3.00;99.90
39815;DHT22;25495;45.948;4.568;2023-02-02T07:17:10;3.00;99.90
39815;DHT22;25495;45.948;4.568;2023-02-02T07:19:35;3.10;99.90
39815;DHT22;25495;45.948;4.568;2023-02-02T07:22:01;3.10;99.90
39815;DHT22;25495;45.948;4.568;2023-02-02T07:24:27;3.20;99.90
39815;DHT22;25495;45.948;4.568;2023-02-02T07:26:53;3.20;99.90
39815;DHT22;25495;45.948;4.568;2023-02-02T07:29:19;3.20;99.90
39815;DHT22;25495;45.948;4.568;2023-02-02T07:31:44;3.30;99.90
39815;DHT22;25495;45.948;4.568;2023-02-02T07:34:10;3.50;99.90
39815;DHT22;25495;45.948;4.568;2023-02-02T07:36:35;3.60;99.90
39815;DHT22;25495;45.948;4.568;2023-02-02T07:39:02;3.70;99.90
39815;DHT22;25495;45.948;4.568;2023-02-02T07:41:29;3.80;99.90
39815;DHT22;25495;45.948;4.568;2023-02-02T07:43:54;3.80;99.90
39815;DHT22;25495;45.948;4.568;2023-02-02T07:46:20;3.80;99.90
39815;DHT22;25495;45.948;4.568;2023-02-02T07:48:46;4.00;99.90
39815;DHT22;25495;45.948;4.568;2023-02-02T07:51:13;4.00;99.90
39815;DHT22;25495;45.948;4.568;2023-02-02T07:53:41;4.10;99.90
39815;DHT22;25495;45.948;4.568;2023-02-02T07:56:16;4.20;99.90
39815;DHT22;25495;45.948;4.568;2023-02-02T07:58:43;4.20;99.90
39815;DHT22;25495;45.948;4.568;2023-02-02T08:01:09;4.20;99.90
39815;DHT22;25495;45.948;4.568;2023-02-02T08:03:35;4.20;99.90
39815;DHT22;25495;45.948;4.568;2023-02-02T08:06:06;4.40;99.90
39815;DHT22;25495;45.948;4.568;2023-02-02T08:08:33;4.50;99.90
39815;DHT22;25495;45.948;4.568;2023-02-02T08:10:58;4.70;99.90
39815;DHT22;25495;45.948;4.568;2023-02-02T08:13:24;4.60;99.90
39815;DHT22;25495;45.948;4.568;2023-02-02T08:15:49;4.40;99.90
39815;DHT22;25495;45.948;4.568;2023-02-02T08:18:15;4.50;99.90
39815;DHT22;25495;45.948;4.568;2023-02-02T08:20:41;4.40;99.90
39815;DHT22;25495;45.948;4.568;2023-02-02T08:23:06;4.40;99.90
39815;DHT22;25495;45.948;4.568;2023-02-02T08:25:38;4.40;99.90
39815;DHT22;25495;45.948;4.568;2023-02-02T08:28:06;4.40;99.90
39815;DHT22;25495;45.948;4.568;2023-02-02T08:30:33;4.50;99.90
39815;DHT22;25495;45.948;4.568;2023-02-02T08:32:59;4.80;99.90
39815;DHT22;25495;45.948;4.568;2023-02-02T08:35:28;4.80;99.90
39815;DHT22;25495;45.948;4.568;2023-02-02T08:37:53;4.70;99.90
39815;DHT22;25495;45.948;4.568;2023-02-02T08:40:19;4.70;99.90
39815;DHT22;25495;45.948;4.568;2023-02-02T08:42:44;4.80;99.90
39815;DHT22;25495;45.948;4.568;2023-02-02T08:45:11;4.80;99.90
39815;DHT22;25495;45.948;4.568;2023-02-02T08:47:37;4.90;99.90
39815;DHT22;25495;45.948;4.568;2023-02-02T08:50:03;4.80;99.90
39815;DHT22;25495;45.948;4.568;2023-02-02T08:52:28;4.80;99.90
39815;DHT22;25495;45.948;4.568;2023-02-02T08:54:54;4.80;99.90
39815;DHT22;25495;45.948;4.568;2023-02-02T08:57:19;5.00;99.90
39815;DHT22;25495;45.948;4.568;2023-02-02T08:59:45;5.00;99.90
39815;DHT22;25495;45.948;4.568;2023-02-02T09:02:10;5.10;99.90
39815;DHT22;25495;45.948;4.568;2023-02-02T09:04:38;5.30;99.90
39815;DHT22;25495;45.948;4.568;2023-02-02T09:07:04;5.50;99.90
39815;DHT22;25495;45.948;4.568;2023-02-02T09:09:30;5.70;99.90
39815;DHT22;25495;45.948;4.568;2023-02-02T09:11:55;5.60;99.90
39815;DHT22;25495;45.948;4.568;2023-02-02T09:14:21;5.50;99.90
39815;DHT22;25495;45.948;4.568;2023-02-02T09:16:47;5.40;99.90
39815;DHT22;25495;45.948;4.568;2023-02-02T09:19:12;5.40;99.90
39815;DHT22;25495;45.948;4.568;2023-02-02T09:21:38;5.40;99.90
39815;DHT22;25495;45.948;4.568;2023-02-02T09:24:05;5.40;99.90
39815;DHT22;25495;45.948;4.568;2023-02-02T09:26:31;5.30;99.90
39815;DHT22;25495;45.948;4.568;2023-02-02T09:28:58;5.40;99.90
39815;DHT22;25495;45.948;4.568;2023-02-02T09:31:26;5.50;99.90
39815;DHT22;25495;45.948;4.568;2023-02-02T09:33:52;5.60;99.90
39815;DHT22;25495;45.948;4.568;2023-02-02T09:38:44;6.00;99.90
39815;DHT22;25495;45.948;4.568;2023-02-02T09:43:42;6.60;99.90
39815;DHT22;25495;45.948;4.568;2023-02-02T09:49:00;6.60;99.90
39815;DHT22;25495;45.948;4.568;2023-02-02T09:51:27;6.50;99.90
39815;DHT22;25495;45.948;4.568;2023-02-02T09:53:58;7.00;99.90
39815;DHT22;25495;45.948;4.568;2023-02-02T09:56:26;7.20;99.90
39815;DHT22;25495;45.948;4.568;2023-02-02T09:58:53;7.00;99.90
39815;DHT22;25495;45.948;4.568;2023-02-02T10:08:56;7.20;99.90
39815;DHT22;25495;45.948;4.568;2023-02-02T10:11:58;7.70;99.90
39815;DHT22;25495;45.948;4.568;2023-02-02T10:16:44;7.40;99.90
39815;DHT22;25495;45.948;4.568;2023-02-02T10:19:11;7.30;99.90
39815;DHT22;25495;45.948;4.568;2023-02-02T10:24:04;7.40;99.90
39815;DHT22;25495;45.948;4.568;2023-02-02T10:26:53;7.50;99.90
39815;DHT22;25495;45.948;4.568;2023-02-02T10:39:43;8.40;99.90
39815;DHT22;25495;45.948;4.568;2023-02-02T10:42:49;8.40;99.90
39815;DHT22;25495;45.948;4.568;2023-02-02T10:45:07;8.60;99.90
39815;DHT22;25495;45.948;4.568;2023-02-02T10:47:35;8.80;99.90
39815;DHT22;25495;45.948;4.568;2023-02-02T10:52:29;9.00;99.90
39815;DHT22;25495;45.948;4.568;2023-02-02T10:54:56;7.90;99.90
39815;DHT22;25495;45.948;4.568;2023-02-02T11:02:39;8.00;99.90
39815;DHT22;25495;45.948;4.568;2023-02-02T11:05:05;8.50;99.90
39815;DHT22;25495;45.948;4.568;2023-02-02T11:07:50;8.50;99.90
39815;DHT22;25495;45.948;4.568;2023-02-02T11:10:17;8.70;99.90
39815;DHT22;25495;45.948;4.568;2023-02-02T11:12:44;8.80;99.90
39815;DHT22;25495;45.948;4.568;2023-02-02T11:15:24;8.80;99.90
39815;DHT22;25495;45.948;4.568;2023-02-02T11:17:50;8.70;99.90
39815;DHT22;25495;45.948;4.568;2023-02-02T11:20:32;8.60;99.90
39815;DHT22;25495;45.948;4.568;2023-02-02T11:23:00;8.40;99.90
39815;DHT22;25495;45.948;4.568;2023-02-02T11:25:33;9.00;99.90
39815;DHT22;25495;45.948;4.568;2023-02-02T11:28:12;9.60;99.90
39815;DHT22;25495;45.948;4.568;2023-02-02T11:30:45;9.70;99.90
39815;DHT22;25495;45.948;4.568;2023-02-02T11:35:56;8.60;99.90
39815;DHT22;25495;45.948;4.568;2023-02-02T11:38:22;8.10;99.90
39815;DHT22;25495;45.948;4.568;2023-02-02T11:40:51;8.10;99.90
39815;DHT22;25495;45.948;4.568;2023-02-02T11:43:18;8.40;99.90
39815;DHT22;25495;45.948;4.568;2023-02-02T11:45:45;8.80;99.90
39815;DHT22;25495;45.948;4.568;2023-02-02T11:50:43;9.10;99.90
39815;DHT22;25495;45.948;4.568;2023-02-02T11:53:19;8.80;99.90
39815;DHT22;25495;45.948;4.568;2023-02-02T11:55:45;8.60;99.90
39815;DHT22;25495;45.948;4.568;2023-02-02T11:58:21;8.50;99.90
39815;DHT22;25495;45.948;4.568;2023-02-02T12:05:51;8.00;99.90
39815;DHT22;25495;45.948;4.568;2023-02-02T12:08:17;8.00;99.90
39815;DHT22;25495;45.948;4.568;2023-02-02T12:11:01;8.10;99.90
39815;DHT22;25495;45.948;4.568;2023-02-02T12:36:51;8.70;99.40
39815;DHT22;25495;45.948;4.568;2023-02-02T13:10:51;8.20;99.80
39815;DHT22;25495;45.948;4.568;2023-02-02T13:13:18;8.10;99.80
39815;DHT22;25495;45.948;4.568;2023-02-02T13:15:45;8.30;99.90
39815;DHT22;25495;45.948;4.568;2023-02-02T13:18:18;8.10;99.70
39815;DHT22;25495;45.948;4.568;2023-02-02T13:20:54;8.00;99.90
39815;DHT22;25495;45.948;4.568;2023-02-02T13:23:23;8.20;99.90
39815;DHT22;25495;45.948;4.568;2023-02-02T13:25:55;8.50;99.90
39815;DHT22;25495;45.948;4.568;2023-02-02T13:31:16;8.20;99.70
39815;DHT22;25495;45.948;4.568;2023-02-02T13:33:44;8.00;99.90
39815;DHT22;25495;45.948;4.568;2023-02-02T13:36:15;7.90;99.90
39815;DHT22;25495;45.948;4.568;2023-02-02T13:38:42;7.70;99.90
39815;DHT22;25495;45.948;4.568;2023-02-02T13:41:10;7.70;99.90
39815;DHT22;25495;45.948;4.568;2023-02-02T13:48:52;8.00;99.90
39815;DHT22;25495;45.948;4.568;2023-02-02T13:59:26;8.10;99.90
39815;DHT22;25495;45.948;4.568;2023-02-02T14:01:54;8.10;99.90
39815;DHT22;25495;45.948;4.568;2023-02-02T14:04:26;8.10;99.90
39815;DHT22;25495;45.948;4.568;2023-02-02T14:09:17;7.70;99.90
39815;DHT22;25495;45.948;4.568;2023-02-02T14:11:49;7.70;99.90
39815;DHT22;25495;45.948;4.568;2023-02-02T14:14:17;7.70;99.90
39815;DHT22;25495;45.948;4.568;2023-02-02T14:26:52;7.70;99.90
39815;DHT22;25495;45.948;4.568;2023-02-02T14:31:54;7.80;99.90
39815;DHT22;25495;45.948;4.568;2023-02-02T14:39:25;7.80;99.90
39815;DHT22;25495;45.948;4.568;2023-02-02T14:41:57;7.60;99.90
39815;DHT22;25495;45.948;4.568;2023-02-02T14:45:04;7.60;99.90
39815;DHT22;25495;45.948;4.568;2023-02-02T14:47:41;7.50;99.90
39815;DHT22;25495;45.948;4.568;2023-02-02T14:50:14;7.40;99.90
39815;DHT22;25495;45.948;4.568;2023-02-02T14:52:42;7.30;99.90
39815;DHT22;25495;45.948;4.568;2023-02-02T14:55:17;7.30;99.90
39815;DHT22;25495;45.948;4.568;2023-02-02T14:57:43;7.40;99.90
39815;DHT22;25495;45.948;4.568;2023-02-02T15:00:20;7.30;99.90
39815;DHT22;25495;45.948;4.568;2023-02-02T15:02:47;7.20;99.90
39815;DHT22;25495;45.948;4.568;2023-02-02T15:07:53;7.10;99.90
39815;DHT22;25495;45.948;4.568;2023-02-02T15:11:05;7.10;99.90
39815;DHT22;25495;45.948;4.568;2023-02-02T15:13:05;7.10;99.90
39815;DHT22;25495;45.948;4.568;2023-02-02T15:15:31;7.10;99.90
39815;DHT22;25495;45.948;4.568;2023-02-02T15:18:04;7.10;99.90
39815;DHT22;25495;45.948;4.568;2023-02-02T15:20:34;7.10;99.90
39815;DHT22;25495;45.948;4.568;2023-02-02T15:23:02;7.10;99.90
39815;DHT22;25495;45.948;4.568;2023-02-02T15:26:12;7.10;99.90
39815;DHT22;25495;45.948;4.568;2023-02-02T15:28:23;7.00;99.90
39815;DHT22;25495;45.948;4.568;2023-02-02T15:30:51;7.10;99.90
39815;DHT22;25495;45.948;4.568;2023-02-02T15:35:44;7.10;99.90
39815;DHT22;25495;45.948;4.568;2023-02-02T15:38:11;7.00;99.90
39815;DHT22;25495;45.948;4.568;2023-02-02T15:40:39;7.00;99.90
39815;DHT22;25495;45.948;4.568;2023-02-02T15:43:05;6.90;99.90
39815;DHT22;25495;45.948;4.568;2023-02-02T15:45:43;7.10;99.90
39815;DHT22;25495;45.948;4.568;2023-02-02T15:48:25;7.00;99.90
39815;DHT22;25495;45.948;4.568;2023-02-02T15:50:54;6.90;99.90
39815;DHT22;25495;45.948;4.568;2023-02-02T15:53:24;6.80;99.90
39815;DHT22;25495;45.948;4.568;2023-02-02T15:55:50;6.80;99.90
39815;DHT22;25495;45.948;4.568;2023-02-02T15:58:24;6.80;99.90
39815;DHT22;25495;45.948;4.568;2023-02-02T16:03:26;6.80;99.90
39815;DHT22;25495;45.948;4.568;2023-02-02T16:05:54;6.80;99.90
39815;DHT22;25495;45.948;4.568;2023-02-02T16:10:47;6.80;99.90
39815;DHT22;25495;45.948;4.568;2023-02-02T16:13:24;6.70;99.90
39815;DHT22;25495;45.948;4.568;2023-02-02T16:15:53;6.70;99.90
39815;DHT22;25495;45.948;4.568;2023-02-02T16:18:19;6.80;99.90
39815;DHT22;25495;45.948;4.568;2023-02-02T16:20:44;6.80;99.90
39815;DHT22;25495;45.948;4.568;2023-02-02T16:23:12;6.70;99.90
39815;DHT22;25495;45.948;4.568;2023-02-02T16:25:49;6.80;99.90
39815;DHT22;25495;45.948;4.568;2023-02-02T16:28:16;6.70;99.90
39815;DHT22;25495;45.948;4.568;2023-02-02T16:30:42;6.70;99.90
39815;DHT22;25495;45.948;4.568;2023-02-02T16:33:28;6.60;99.90
39815;DHT22;25495;45.948;4.568;2023-02-02T16:35:54;6.70;99.90
39815;DHT22;25495;45.948;4.568;2023-02-02T16:40:59;6.60;99.90
39815;DHT22;25495;45.948;4.568;2023-02-02T16:43:26;6.50;99.90
39815;DHT22;25495;45.948;4.568;2023-02-02T16:45:53;6.60;99.90
39815;DHT22;25495;45.948;4.568;2023-02-02T16:50:46;6.60;99.90
39815;DHT22;25495;45.948;4.568;2023-02-02T16:53:19;6.50;99.90
39815;DHT22;25495;45.948;4.568;2023-02-02T16:55:46;6.50;99.90
39815;DHT22;25495;45.948;4.568;2023-02-02T16:58:14;6.50;99.90
39815;DHT22;25495;45.948;4.568;2023-02-02T17:00:41;6.40;99.90
39815;DHT22;25495;45.948;4.568;2023-02-02T17:03:17;6.40;99.90
39815;DHT22;25495;45.948;4.568;2023-02-02T17:05:46;6.40;99.90
39815;DHT22;25495;45.948;4.568;2023-02-02T17:08:12;6.40;99.90
39815;DHT22;25495;45.948;4.568;2023-02-02T17:10:39;6.40;99.90
39815;DHT22;25495;45.948;4.568;2023-02-02T17:15:51;6.40;99.90
39815;DHT22;25495;45.948;4.568;2023-02-02T17:18:16;6.40;99.90
39815;DHT22;25495;45.948;4.568;2023-02-02T17:20:42;6.30;99.90
39815;DHT22;25495;45.948;4.568;2023-02-02T17:23:12;6.30;99.90
39815;DHT22;25495;45.948;4.568;2023-02-02T17:25:40;6.30;99.90
39815;DHT22;25495;45.948;4.568;2023-02-02T17:28:09;6.30;99.90
39815;DHT22;25495;45.948;4.568;2023-02-02T17:30:35;6.30;99.90
39815;DHT22;25495;45.948;4.568;2023-02-02T17:33:01;6.30;99.90
39815;DHT22;25495;45.948;4.568;2023-02-02T17:35:26;6.30;99.90
39815;DHT22;25495;45.948;4.568;2023-02-02T17:37:52;6.40;99.90
39815;DHT22;25495;45.948;4.568;2023-02-02T17:40:19;6.40;99.90
39815;DHT22;25495;45.948;4.568;2023-02-02T17:42:46;6.40;99.90
39815;DHT22;25495;45.948;4.568;2023-02-02T17:45:14;6.50;99.90
39815;DHT22;25495;45.948;4.568;2023-02-02T17:47:40;6.50;99.90
39815;DHT22;25495;45.948;4.568;2023-02-02T17:50:06;6.60;99.90
39815;DHT22;25495;45.948;4.568;2023-02-02T17:52:31;6.60;99.90
39815;DHT22;25495;45.948;4.568;2023-02-02T17:54:57;6.50;99.90
39815;DHT22;25495;45.948;4.568;2023-02-02T17:57:23;6.50;99.90
39815;DHT22;25495;45.948;4.568;2023-02-02T17:59:48;6.60;99.90
39815;DHT22;25495;45.948;4.568;2023-02-02T18:02:14;6.70;99.90
39815;DHT22;25495;45.948;4.568;2023-02-02T18:04:40;6.70;99.90
39815;DHT22;25495;45.948;4.568;2023-02-02T18:07:07;6.50;99.90
39815;DHT22;25495;45.948;4.568;2023-02-02T18:09:33;6.60;99.90
39815;DHT22;25495;45.948;4.568;2023-02-02T18:11:59;6.50;99.90
39815;DHT22;25495;45.948;4.568;2023-02-02T18:14:24;6.60;99.90
39815;DHT22;25495;45.948;4.568;2023-02-02T18:16:50;6.50;99.90
39815;DHT22;25495;45.948;4.568;2023-02-02T18:19:16;6.40;99.90
39815;DHT22;25495;45.948;4.568;2023-02-02T18:21:42;6.30;99.90
39815;DHT22;25495;45.948;4.568;2023-02-02T18:24:11;6.30;99.90
39815;DHT22;25495;45.948;4.568;2023-02-02T18:26:39;6.30;99.90
39815;DHT22;25495;45.948;4.568;2023-02-02T18:29:05;6.30;99.90
39815;DHT22;25495;45.948;4.568;2023-02-02T18:31:30;6.30;99.90
39815;DHT22;25495;45.948;4.568;2023-02-02T18:33:56;6.40;99.90
39815;DHT22;25495;45.948;4.568;2023-02-02T18:36:22;6.40;99.90
39815;DHT22;25495;45.948;4.568;2023-02-02T18:38:48;6.40;99.90
39815;DHT22;25495;45.948;4.568;2023-02-02T18:41:15;6.40;99.90
39815;DHT22;25495;45.948;4.568;2023-02-02T18:43:41;6.50;99.90
39815;DHT22;25495;45.948;4.568;2023-02-02T18:46:09;6.40;99.90
39815;DHT22;25495;45.948;4.568;2023-02-02T18:48:35;6.40;99.90
39815;DHT22;25495;45.948;4.568;2023-02-02T18:51:04;6.50;99.90
39815;DHT22;25495;45.948;4.568;2023-02-02T18:53:30;6.40;99.90
39815;DHT22;25495;45.948;4.568;2023-02-02T18:55:56;6.40;99.90